createdAt,value
2019-05-10T00:00:45.000Z,9.04
2019-05-10T00:01:45.000Z,9.03
2019-05-10T00:02:45.000Z,9.04
2019-05-10T00:03:45.000Z,9.03
2019-05-10T00:04:45.000Z,9.03
2019-05-10T00:05:45.000Z,9.03
2019-05-10T00:06:46.000Z,9.03
2019-05-10T00:07:45.000Z,9.02
2019-05-10T00:08:45.000Z,9.00
2019-05-10T00:09:45.000Z,9.03
2019-05-10T00:10:46.000Z,9.04
2019-05-10T00:11:46.000Z,9.03
2019-05-10T00:12:46.000Z,9.04
2019-05-10T00:13:46.000Z,9.03
2019-05-10T00:14:46.000Z,9.03
2019-05-10T00:15:46.000Z,9.04
2019-05-10T00:16:46.000Z,9.03
2019-05-10T00:17:46.000Z,9.03
2019-05-10T00:18:46.000Z,9.04
2019-05-10T00:19:46.000Z,9.02
2019-05-10T00:20:46.000Z,9.02
2019-05-10T00:21:47.000Z,9.03
2019-05-10T00:22:47.000Z,9.06
2019-05-10T00:23:47.000Z,9.06
2019-05-10T00:24:47.000Z,9.07
2019-05-10T00:25:45.000Z,9.06
2019-05-10T00:26:45.000Z,9.07
2019-05-10T00:27:45.000Z,9.06
2019-05-10T00:28:45.000Z,9.07
2019-05-10T00:29:47.000Z,9.07
2019-05-10T00:30:45.000Z,9.08
2019-05-10T00:31:45.000Z,9.05
2019-05-10T00:32:45.000Z,9.06
2019-05-10T00:33:45.000Z,9.08
2019-05-10T00:34:45.000Z,9.06
2019-05-10T00:35:45.000Z,9.07
2019-05-10T00:36:45.000Z,9.07
2019-05-10T00:37:45.000Z,9.08
2019-05-10T00:38:45.000Z,9.08
2019-05-10T00:39:45.000Z,9.07
2019-05-10T00:40:45.000Z,9.08
2019-05-10T00:41:45.000Z,9.06
2019-05-10T00:42:45.000Z,9.09
2019-05-10T00:43:45.000Z,9.10
2019-05-10T00:44:46.000Z,9.12
2019-05-10T00:45:46.000Z,9.11
2019-05-10T00:46:46.000Z,9.11
2019-05-10T00:47:46.000Z,9.10
2019-05-10T00:48:46.000Z,9.12
2019-05-10T00:49:45.000Z,9.12
2019-05-10T00:50:45.000Z,9.13
2019-05-10T00:51:45.000Z,9.10
2019-05-10T00:52:45.000Z,9.13
2019-05-10T00:53:46.000Z,9.10
2019-05-10T00:54:45.000Z,9.10
2019-05-10T00:55:46.000Z,9.09
2019-05-10T00:56:46.000Z,9.09
2019-05-10T00:57:46.000Z,9.11
2019-05-10T00:58:46.000Z,9.13
2019-05-10T00:59:46.000Z,9.12
2019-05-10T01:00:46.000Z,9.14
2019-05-10T01:01:46.000Z,9.14
2019-05-10T01:02:45.000Z,9.14
2019-05-10T01:03:46.000Z,9.13
2019-05-10T01:04:46.000Z,9.11
2019-05-10T01:05:47.000Z,9.12
2019-05-10T01:06:46.000Z,9.09
2019-05-10T01:07:47.000Z,9.12
2019-05-10T01:08:46.000Z,9.12
2019-05-10T01:09:46.000Z,9.13
2019-05-10T01:10:46.000Z,9.12
2019-05-10T01:11:46.000Z,9.12
2019-05-10T01:12:46.000Z,9.12
2019-05-10T01:13:46.000Z,9.13
2019-05-10T01:14:46.000Z,9.15
2019-05-10T01:15:47.000Z,9.12
2019-05-10T01:16:47.000Z,9.14
2019-05-10T01:17:47.000Z,9.11
2019-05-10T01:18:47.000Z,9.16
2019-05-10T01:19:47.000Z,9.12
2019-05-10T01:20:46.000Z,9.12
2019-05-10T01:21:46.000Z,9.15
2019-05-10T01:22:46.000Z,9.12
2019-05-10T01:23:46.000Z,9.11
2019-05-10T01:24:47.000Z,9.11
2019-05-10T01:25:47.000Z,9.12
2019-05-10T01:26:47.000Z,9.12
2019-05-10T01:27:47.000Z,9.12
2019-05-10T01:28:46.000Z,9.11
2019-05-10T01:29:47.000Z,9.10
2019-05-10T01:30:47.000Z,9.09
2019-05-10T01:31:46.000Z,9.13
2019-05-10T01:32:46.000Z,9.12
2019-05-10T01:33:46.000Z,9.10
2019-05-10T01:34:46.000Z,9.06
2019-05-10T01:35:46.000Z,9.04
2019-05-10T01:36:46.000Z,9.04
2019-05-10T01:37:46.000Z,9.01
2019-05-10T01:38:46.000Z,9.01
2019-05-10T01:39:47.000Z,9.00
2019-05-10T01:40:46.000Z,8.98
2019-05-10T01:41:46.000Z,8.97
2019-05-10T01:42:47.000Z,8.98
2019-05-10T01:43:45.000Z,8.98
2019-05-10T01:44:45.000Z,8.97
2019-05-10T01:45:45.000Z,8.97
2019-05-10T01:46:46.000Z,8.97
2019-05-10T01:47:46.000Z,8.99
2019-05-10T01:48:46.000Z,8.97
2019-05-10T01:49:46.000Z,8.98
2019-05-10T01:50:45.000Z,8.97
2019-05-10T01:51:45.000Z,8.97
2019-05-10T01:52:45.000Z,8.97
2019-05-10T01:53:47.000Z,9.00
2019-05-10T01:54:46.000Z,9.00
2019-05-10T01:55:47.000Z,8.99
2019-05-10T01:56:45.000Z,9.01
2019-05-10T01:57:47.000Z,9.01
2019-05-10T01:58:45.000Z,9.04
2019-05-10T01:59:46.000Z,9.03
2019-05-10T02:00:46.000Z,9.02
2019-05-10T02:01:45.000Z,9.00
2019-05-10T02:02:45.000Z,8.99
2019-05-10T02:03:45.000Z,8.98
2019-05-10T02:04:45.000Z,8.98
2019-05-10T02:05:45.000Z,8.98
2019-05-10T02:06:45.000Z,8.98
2019-05-10T02:07:45.000Z,8.99
2019-05-10T02:08:45.000Z,8.97
2019-05-10T02:09:45.000Z,8.94
2019-05-10T02:10:45.000Z,8.92
2019-05-10T02:11:45.000Z,8.92
2019-05-10T02:12:45.000Z,8.90
2019-05-10T02:13:45.000Z,8.90
2019-05-10T02:14:45.000Z,8.89
2019-05-10T02:15:45.000Z,8.87
2019-05-10T02:16:45.000Z,8.88
2019-05-10T02:17:45.000Z,8.89
2019-05-10T02:18:45.000Z,8.93
2019-05-10T02:19:45.000Z,8.90
2019-05-10T02:20:45.000Z,8.94
2019-05-10T02:21:46.000Z,8.92
2019-05-10T02:22:45.000Z,8.89
2019-05-10T02:23:45.000Z,8.87
2019-05-10T02:24:45.000Z,8.89
2019-05-10T02:25:45.000Z,8.90
2019-05-10T02:26:45.000Z,8.91
2019-05-10T02:27:45.000Z,8.90
2019-05-10T02:28:45.000Z,8.91
2019-05-10T02:29:45.000Z,8.92
2019-05-10T02:30:45.000Z,8.91
2019-05-10T02:31:45.000Z,8.94
2019-05-10T02:32:45.000Z,8.94
2019-05-10T02:33:45.000Z,8.91
2019-05-10T02:34:45.000Z,8.88
2019-05-10T02:35:45.000Z,8.88
2019-05-10T02:36:45.000Z,8.87
2019-05-10T02:37:45.000Z,8.88
2019-05-10T02:38:45.000Z,8.87
2019-05-10T02:39:45.000Z,8.88
2019-05-10T02:40:45.000Z,8.87
2019-05-10T02:41:45.000Z,8.85
2019-05-10T02:42:46.000Z,8.87
2019-05-10T02:43:45.000Z,8.87
2019-05-10T02:44:45.000Z,8.88
2019-05-10T02:45:45.000Z,8.87
2019-05-10T02:46:45.000Z,8.89
2019-05-10T02:47:45.000Z,8.88
2019-05-10T02:48:45.000Z,8.88
2019-05-10T02:49:45.000Z,8.87
2019-05-10T02:50:45.000Z,8.88
2019-05-10T02:51:45.000Z,8.88
2019-05-10T02:52:45.000Z,8.87
2019-05-10T02:53:45.000Z,8.85
2019-05-10T02:54:45.000Z,8.86
2019-05-10T02:55:45.000Z,8.84
2019-05-10T02:56:45.000Z,8.85
2019-05-10T02:57:45.000Z,8.85
2019-05-10T02:58:45.000Z,8.85
2019-05-10T02:59:45.000Z,8.84
2019-05-10T03:00:45.000Z,8.84
2019-05-10T03:01:45.000Z,8.83
2019-05-10T03:02:45.000Z,8.83
2019-05-10T03:03:45.000Z,8.85
2019-05-10T03:04:46.000Z,8.84
2019-05-10T03:05:45.000Z,8.85
2019-05-10T03:06:45.000Z,8.87
2019-05-10T03:07:45.000Z,8.83
2019-05-10T03:08:45.000Z,8.82
2019-05-10T03:09:45.000Z,8.76
2019-05-10T03:10:45.000Z,8.78
2019-05-10T03:11:45.000Z,8.75
2019-05-10T03:12:45.000Z,8.74
2019-05-10T03:13:45.000Z,8.72
2019-05-10T03:14:45.000Z,8.70
2019-05-10T03:15:45.000Z,8.72
2019-05-10T03:16:45.000Z,8.75
2019-05-10T03:17:45.000Z,8.76
2019-05-10T03:18:45.000Z,8.69
2019-05-10T03:19:45.000Z,8.64
2019-05-10T03:20:45.000Z,8.64
2019-05-10T03:21:45.000Z,8.63
2019-05-10T03:22:45.000Z,8.66
2019-05-10T03:23:45.000Z,8.66
2019-05-10T03:24:45.000Z,8.62
2019-05-10T03:25:45.000Z,8.62
2019-05-10T03:26:45.000Z,8.62
2019-05-10T03:27:45.000Z,8.64
2019-05-10T03:28:45.000Z,8.64
2019-05-10T03:29:45.000Z,8.63
2019-05-10T03:30:45.000Z,8.64
2019-05-10T03:31:46.000Z,8.60
2019-05-10T03:32:45.000Z,8.62
2019-05-10T03:33:45.000Z,8.62
2019-05-10T03:34:45.000Z,8.60
2019-05-10T03:35:45.000Z,8.62
2019-05-10T03:36:45.000Z,8.57
2019-05-10T03:37:45.000Z,8.60
2019-05-10T03:38:45.000Z,8.60
2019-05-10T03:39:45.000Z,8.61
2019-05-10T03:40:45.000Z,8.60
2019-05-10T03:41:45.000Z,8.60
2019-05-10T03:42:45.000Z,8.61
2019-05-10T03:43:45.000Z,8.59
2019-05-10T03:44:45.000Z,8.59
2019-05-10T03:45:45.000Z,8.57
2019-05-10T03:46:45.000Z,8.57
2019-05-10T03:47:45.000Z,8.58
2019-05-10T03:48:45.000Z,8.57
2019-05-10T03:49:45.000Z,8.53
2019-05-10T03:50:45.000Z,8.55
2019-05-10T03:51:45.000Z,8.55
2019-05-10T03:52:45.000Z,8.58
2019-05-10T03:53:45.000Z,8.55
2019-05-10T03:54:45.000Z,8.56
2019-05-10T03:55:45.000Z,8.54
2019-05-10T03:56:45.000Z,8.59
2019-05-10T03:57:45.000Z,8.59
2019-05-10T03:58:45.000Z,8.57
2019-05-10T03:59:45.000Z,8.56
2019-05-10T04:00:45.000Z,8.56
2019-05-10T04:01:45.000Z,8.55
2019-05-10T04:02:45.000Z,8.57
2019-05-10T04:03:45.000Z,8.55
2019-05-10T04:04:45.000Z,8.55
2019-05-10T04:05:45.000Z,8.51
2019-05-10T04:06:45.000Z,8.49
2019-05-10T04:07:45.000Z,8.49
2019-05-10T04:08:46.000Z,8.52
2019-05-10T04:09:45.000Z,8.50
2019-05-10T04:10:45.000Z,8.51
2019-05-10T04:11:46.000Z,8.52
2019-05-10T04:12:45.000Z,8.52
2019-05-10T04:13:45.000Z,8.52
2019-05-10T04:14:45.000Z,8.50
2019-05-10T04:15:45.000Z,8.52
2019-05-10T04:16:45.000Z,8.50
2019-05-10T04:17:45.000Z,8.49
2019-05-10T04:18:45.000Z,8.49
2019-05-10T04:19:45.000Z,8.49
2019-05-10T04:20:45.000Z,8.49
2019-05-10T04:21:45.000Z,8.50
2019-05-10T04:22:45.000Z,8.50
2019-05-10T04:23:45.000Z,8.50
2019-05-10T04:24:45.000Z,8.50
2019-05-10T04:25:45.000Z,8.54
2019-05-10T04:26:45.000Z,8.48
2019-05-10T04:27:45.000Z,8.49
2019-05-10T04:28:45.000Z,8.48
2019-05-10T04:29:46.000Z,8.48
2019-05-10T04:30:45.000Z,8.49
2019-05-10T04:31:45.000Z,8.50
2019-05-10T04:32:45.000Z,8.48
2019-05-10T04:33:45.000Z,8.47
2019-05-10T04:34:45.000Z,8.51
2019-05-10T04:35:45.000Z,8.49
2019-05-10T04:36:45.000Z,8.49
2019-05-10T04:37:45.000Z,8.49
2019-05-10T04:38:45.000Z,8.49
2019-05-10T04:39:45.000Z,8.49
2019-05-10T04:40:45.000Z,8.49
2019-05-10T04:41:45.000Z,8.47
2019-05-10T04:42:45.000Z,8.48
2019-05-10T04:43:45.000Z,8.48
2019-05-10T04:44:45.000Z,8.51
2019-05-10T04:45:45.000Z,8.50
2019-05-10T04:46:45.000Z,8.47
2019-05-10T04:47:45.000Z,8.46
2019-05-10T04:48:45.000Z,8.47
2019-05-10T04:49:45.000Z,8.46
2019-05-10T04:50:45.000Z,8.46
2019-05-10T04:51:45.000Z,8.46
2019-05-10T04:52:44.000Z,8.46
2019-05-10T04:53:44.000Z,8.46
2019-05-10T04:54:44.000Z,8.47
2019-05-10T04:55:44.000Z,8.48
2019-05-10T04:56:44.000Z,8.48
2019-05-10T04:57:44.000Z,8.48
2019-05-10T04:58:44.000Z,8.51
2019-05-10T04:59:44.000Z,8.50
2019-05-10T05:00:44.000Z,8.50
2019-05-10T05:01:44.000Z,8.49
2019-05-10T05:02:44.000Z,8.51
2019-05-10T05:03:44.000Z,8.51
2019-05-10T05:04:44.000Z,8.50
2019-05-10T05:05:44.000Z,8.54
2019-05-10T05:06:44.000Z,8.53
2019-05-10T05:07:44.000Z,8.54
2019-05-10T05:08:44.000Z,8.56
2019-05-10T05:09:44.000Z,8.56
2019-05-10T05:10:44.000Z,8.58
2019-05-10T05:11:44.000Z,8.61
2019-05-10T05:12:44.000Z,8.64
2019-05-10T05:13:45.000Z,8.69
2019-05-10T05:14:44.000Z,8.70
2019-05-10T05:15:44.000Z,8.71
2019-05-10T05:16:44.000Z,8.69
2019-05-10T05:17:44.000Z,8.71
2019-05-10T05:18:44.000Z,8.71
2019-05-10T05:19:44.000Z,8.72
2019-05-10T05:20:44.000Z,8.75
2019-05-10T05:21:44.000Z,8.75
2019-05-10T05:22:44.000Z,8.75
2019-05-10T05:23:44.000Z,8.78
2019-05-10T05:24:44.000Z,8.79
2019-05-10T05:25:44.000Z,8.79
2019-05-10T05:26:44.000Z,8.83
2019-05-10T05:27:44.000Z,8.83
2019-05-10T05:28:44.000Z,8.82
2019-05-10T05:29:44.000Z,8.84
2019-05-10T05:30:44.000Z,8.86
2019-05-10T05:31:44.000Z,8.86
2019-05-10T05:32:44.000Z,8.87
2019-05-10T05:33:44.000Z,8.86
2019-05-10T05:34:45.000Z,8.87
2019-05-10T05:35:45.000Z,8.83
2019-05-10T05:36:44.000Z,8.85
2019-05-10T05:37:44.000Z,8.86
2019-05-10T05:38:44.000Z,8.81
2019-05-10T05:39:44.000Z,8.81
2019-05-10T05:40:44.000Z,8.82
2019-05-10T05:41:44.000Z,8.84
2019-05-10T05:42:44.000Z,8.87
2019-05-10T05:43:44.000Z,8.86
2019-05-10T05:44:44.000Z,8.88
2019-05-10T05:45:44.000Z,8.84
2019-05-10T05:46:44.000Z,8.89
2019-05-10T05:47:44.000Z,8.90
2019-05-10T05:48:44.000Z,8.90
2019-05-10T05:49:44.000Z,8.93
2019-05-10T05:50:44.000Z,8.92
2019-05-10T05:51:44.000Z,8.95
2019-05-10T05:52:44.000Z,8.94
2019-05-10T05:53:44.000Z,8.99
2019-05-10T05:54:44.000Z,8.99
2019-05-10T05:55:44.000Z,8.98
2019-05-10T05:56:44.000Z,8.99
2019-05-10T05:57:44.000Z,9.00
2019-05-10T05:58:44.000Z,9.00
2019-05-10T05:59:44.000Z,8.96
2019-05-10T06:00:44.000Z,8.92
2019-05-10T06:01:44.000Z,8.98
2019-05-10T06:02:44.000Z,8.99
2019-05-10T06:03:44.000Z,8.94
2019-05-10T06:04:44.000Z,8.97
2019-05-10T06:05:44.000Z,9.02
2019-05-10T06:06:44.000Z,8.98
2019-05-10T06:07:44.000Z,8.99
2019-05-10T06:08:44.000Z,8.99
2019-05-10T06:09:44.000Z,9.02
2019-05-10T06:10:44.000Z,8.96
2019-05-10T06:11:44.000Z,8.94
2019-05-10T06:12:44.000Z,8.87
2019-05-10T06:13:44.000Z,8.93
2019-05-10T06:14:44.000Z,8.89
2019-05-10T06:15:44.000Z,8.94
2019-05-10T06:16:44.000Z,8.97
2019-05-10T06:17:45.000Z,8.96
2019-05-10T06:18:44.000Z,8.98
2019-05-10T06:19:44.000Z,8.98
2019-05-10T06:20:44.000Z,8.99
2019-05-10T06:21:44.000Z,9.00
2019-05-10T06:22:44.000Z,9.03
2019-05-10T06:23:44.000Z,9.02
2019-05-10T06:24:44.000Z,9.05
2019-05-10T06:25:44.000Z,9.02
2019-05-10T06:26:44.000Z,9.03
2019-05-10T06:27:44.000Z,9.02
2019-05-10T06:28:44.000Z,9.02
2019-05-10T06:29:44.000Z,9.02
2019-05-10T06:30:44.000Z,9.07
2019-05-10T06:31:44.000Z,9.07
2019-05-10T06:32:44.000Z,9.00
2019-05-10T06:33:44.000Z,8.99
2019-05-10T06:34:44.000Z,9.04
2019-05-10T06:35:44.000Z,9.05
2019-05-10T06:36:44.000Z,9.07
2019-05-10T06:37:44.000Z,9.13
2019-05-10T06:38:44.000Z,9.17
2019-05-10T06:39:44.000Z,9.19
2019-05-10T06:40:44.000Z,9.18
2019-05-10T06:41:44.000Z,9.25
2019-05-10T06:42:44.000Z,9.25
2019-05-10T06:43:44.000Z,9.23
2019-05-10T06:44:44.000Z,9.25
2019-05-10T06:45:44.000Z,9.22
2019-05-10T06:46:44.000Z,9.21
2019-05-10T06:47:44.000Z,9.23
2019-05-10T06:48:44.000Z,9.17
2019-05-10T06:49:44.000Z,9.14
2019-05-10T06:50:44.000Z,9.19
2019-05-10T06:51:44.000Z,9.17
2019-05-10T06:52:44.000Z,9.17
2019-05-10T06:53:44.000Z,9.14
2019-05-10T06:54:44.000Z,9.16
2019-05-10T06:55:44.000Z,9.21
2019-05-10T06:56:44.000Z,9.20
2019-05-10T06:57:44.000Z,9.19
2019-05-10T06:58:44.000Z,9.13
2019-05-10T06:59:44.000Z,9.12
2019-05-10T07:00:44.000Z,9.13
2019-05-10T07:01:44.000Z,9.17
2019-05-10T07:02:44.000Z,9.20
2019-05-10T07:03:44.000Z,9.12
2019-05-10T07:04:44.000Z,9.12
2019-05-10T07:05:44.000Z,9.17
2019-05-10T07:06:44.000Z,9.17
2019-05-10T07:07:44.000Z,9.20
2019-05-10T07:08:44.000Z,9.22
2019-05-10T07:09:44.000Z,9.09
2019-05-10T07:10:44.000Z,9.17
2019-05-10T07:11:44.000Z,9.13
2019-05-10T07:12:44.000Z,9.08
2019-05-10T07:13:44.000Z,9.06
2019-05-10T07:14:44.000Z,9.15
2019-05-10T07:15:44.000Z,9.19
2019-05-10T07:16:44.000Z,9.09
2019-05-10T07:17:44.000Z,9.05
2019-05-10T07:18:44.000Z,9.07
2019-05-10T07:19:44.000Z,9.01
2019-05-10T07:20:44.000Z,9.07
2019-05-10T07:21:45.000Z,9.10
2019-05-10T07:22:44.000Z,9.07
2019-05-10T07:23:44.000Z,9.10
2019-05-10T07:24:44.000Z,9.06
2019-05-10T07:25:44.000Z,9.05
2019-05-10T07:26:44.000Z,9.06
2019-05-10T07:27:44.000Z,9.03
2019-05-10T07:28:44.000Z,9.04
2019-05-10T07:29:44.000Z,9.00
2019-05-10T07:30:44.000Z,9.02
2019-05-10T07:31:44.000Z,9.00
2019-05-10T07:32:44.000Z,8.92
2019-05-10T07:33:44.000Z,8.89
2019-05-10T07:34:44.000Z,8.89
2019-05-10T07:35:44.000Z,8.97
2019-05-10T07:36:44.000Z,9.02
2019-05-10T07:37:44.000Z,9.03
2019-05-10T07:38:44.000Z,8.96
2019-05-10T07:39:44.000Z,9.00
2019-05-10T07:40:44.000Z,8.99
2019-05-10T07:41:44.000Z,8.96
2019-05-10T07:42:44.000Z,9.02
2019-05-10T07:43:45.000Z,9.02
2019-05-10T07:44:44.000Z,9.04
2019-05-10T07:45:44.000Z,9.10
2019-05-10T07:46:44.000Z,9.11
2019-05-10T07:47:44.000Z,9.10
2019-05-10T07:48:44.000Z,9.10
2019-05-10T07:49:44.000Z,9.02
2019-05-10T07:50:44.000Z,9.11
2019-05-10T07:51:44.000Z,9.07
2019-05-10T07:52:44.000Z,9.00
2019-05-10T07:53:44.000Z,8.96
2019-05-10T07:54:44.000Z,9.00
2019-05-10T07:55:44.000Z,8.98
2019-05-10T07:56:44.000Z,8.91
2019-05-10T07:57:44.000Z,8.85
2019-05-10T07:58:44.000Z,8.89
2019-05-10T07:59:44.000Z,8.91
2019-05-10T08:00:44.000Z,8.86
2019-05-10T08:01:44.000Z,8.91
2019-05-10T08:02:44.000Z,8.84
2019-05-10T08:03:44.000Z,8.79
2019-05-10T08:04:45.000Z,8.80
2019-05-10T08:05:45.000Z,8.89
2019-05-10T08:06:44.000Z,8.88
2019-05-10T08:07:44.000Z,8.92
2019-05-10T08:08:44.000Z,8.95
2019-05-10T08:09:44.000Z,8.84
2019-05-10T08:10:44.000Z,8.87
2019-05-10T08:11:44.000Z,8.93
2019-05-10T08:12:44.000Z,8.81
2019-05-10T08:13:44.000Z,8.81
2019-05-10T08:14:44.000Z,8.82
2019-05-10T08:15:44.000Z,8.88
2019-05-10T08:16:44.000Z,8.86
2019-05-10T08:17:44.000Z,8.82
2019-05-10T08:18:44.000Z,8.83
2019-05-10T08:19:44.000Z,8.82
2019-05-10T08:20:44.000Z,8.78
2019-05-10T08:21:44.000Z,8.75
2019-05-10T08:22:44.000Z,8.74
2019-05-10T08:23:44.000Z,8.80
2019-05-10T08:24:44.000Z,8.85
2019-05-10T08:25:44.000Z,8.82
2019-05-10T08:26:45.000Z,8.69
2019-05-10T08:27:44.000Z,8.51
2019-05-10T08:28:44.000Z,8.46
2019-05-10T08:29:44.000Z,8.50
2019-05-10T08:30:44.000Z,8.67
2019-05-10T08:31:44.000Z,8.68
2019-05-10T08:32:44.000Z,8.75
2019-05-10T08:33:44.000Z,8.79
2019-05-10T08:34:44.000Z,8.79
2019-05-10T08:35:44.000Z,8.70
2019-05-10T08:36:44.000Z,8.61
2019-05-10T08:37:44.000Z,8.69
2019-05-10T08:38:44.000Z,8.74
2019-05-10T08:39:44.000Z,8.65
2019-05-10T08:40:44.000Z,8.63
2019-05-10T08:41:44.000Z,8.73
2019-05-10T08:42:44.000Z,8.75
2019-05-10T08:43:44.000Z,8.82
2019-05-10T08:44:44.000Z,8.77
2019-05-10T08:45:44.000Z,8.83
2019-05-10T08:46:44.000Z,8.83
2019-05-10T08:47:45.000Z,8.88
2019-05-10T08:48:45.000Z,8.93
2019-05-10T08:49:44.000Z,8.75
2019-05-10T08:50:44.000Z,8.81
2019-05-10T08:51:44.000Z,8.82
2019-05-10T08:52:44.000Z,8.90
2019-05-10T08:53:44.000Z,8.87
2019-05-10T08:54:44.000Z,8.92
2019-05-10T08:55:44.000Z,8.94
2019-05-10T08:56:44.000Z,8.87
2019-05-10T08:57:44.000Z,8.88
2019-05-10T08:58:44.000Z,8.90
2019-05-10T08:59:44.000Z,9.01
2019-05-10T09:00:44.000Z,8.95
2019-05-10T09:01:44.000Z,9.04
2019-05-10T09:02:44.000Z,9.02
2019-05-10T09:03:44.000Z,8.85
2019-05-10T09:04:44.000Z,8.56
2019-05-10T09:05:44.000Z,8.75
2019-05-10T09:06:44.000Z,8.93
2019-05-10T09:07:44.000Z,8.94
2019-05-10T09:08:44.000Z,8.99
2019-05-10T09:09:45.000Z,8.78
2019-05-10T09:10:44.000Z,8.66
2019-05-10T09:11:44.000Z,8.62
2019-05-10T09:12:44.000Z,8.74
2019-05-10T09:13:44.000Z,8.80
2019-05-10T09:14:44.000Z,8.88
2019-05-10T09:15:44.000Z,8.96
2019-05-10T09:16:44.000Z,8.64
2019-05-10T09:17:44.000Z,8.99
2019-05-10T09:18:44.000Z,8.89
2019-05-10T09:19:44.000Z,8.62
2019-05-10T09:20:44.000Z,8.67
2019-05-10T09:21:44.000Z,8.66
2019-05-10T09:22:44.000Z,8.85
2019-05-10T09:23:44.000Z,8.87
2019-05-10T09:24:44.000Z,8.84
2019-05-10T09:25:44.000Z,8.80
2019-05-10T09:26:44.000Z,8.79
2019-05-10T09:27:44.000Z,8.73
2019-05-10T09:28:44.000Z,8.80
2019-05-10T09:29:44.000Z,8.74
2019-05-10T09:30:45.000Z,8.86
2019-05-10T09:31:44.000Z,8.80
2019-05-10T09:32:44.000Z,8.76
2019-05-10T09:33:44.000Z,8.76
2019-05-10T09:34:44.000Z,8.77
2019-05-10T09:35:44.000Z,8.82
2019-05-10T09:36:44.000Z,8.85
2019-05-10T09:37:44.000Z,8.77
2019-05-10T09:38:44.000Z,8.76
2019-05-10T09:39:44.000Z,8.87
2019-05-10T09:40:44.000Z,8.88
2019-05-10T09:41:44.000Z,8.89
2019-05-10T09:42:44.000Z,8.92
2019-05-10T09:43:44.000Z,8.95
2019-05-10T09:44:44.000Z,8.81
2019-05-10T09:45:44.000Z,8.66
2019-05-10T09:46:44.000Z,8.76
2019-05-10T09:50:25.000Z,8.75
2019-05-10T09:52:55.000Z,8.86
2019-05-10T09:55:24.000Z,9.09
2019-05-10T09:57:54.000Z,9.00
2019-05-10T10:00:25.000Z,9.17
2019-05-10T10:02:10.000Z,9.20
2019-05-10T10:03:09.000Z,9.13
2019-05-10T10:04:09.000Z,9.17
2019-05-10T10:05:09.000Z,9.23
2019-05-10T10:06:10.000Z,9.21
2019-05-10T10:07:09.000Z,9.08
2019-05-10T10:08:09.000Z,9.00
2019-05-10T10:09:09.000Z,9.11
2019-05-10T10:10:09.000Z,9.14
2019-05-10T10:11:10.000Z,9.06
2019-05-10T10:12:09.000Z,9.18
2019-05-10T10:13:55.000Z,9.03
2019-05-10T10:14:54.000Z,9.07
2019-05-10T10:15:54.000Z,8.91
2019-05-10T10:16:54.000Z,8.98
2019-05-10T10:17:55.000Z,9.02
2019-05-10T10:18:54.000Z,8.97
2019-05-10T10:20:27.000Z,9.14
2019-05-10T10:21:27.000Z,9.16
2019-05-10T10:22:27.000Z,8.84
2019-05-10T10:23:27.000Z,8.89
2019-05-10T10:24:27.000Z,8.82
2019-05-10T10:25:27.000Z,8.83
2019-05-10T10:26:27.000Z,8.88
2019-05-10T10:27:27.000Z,8.89
2019-05-10T10:28:27.000Z,8.83
2019-05-10T10:29:27.000Z,9.00
2019-05-10T10:30:27.000Z,8.73
2019-05-10T10:31:27.000Z,8.70
2019-05-10T10:32:27.000Z,8.78
2019-05-10T10:33:27.000Z,8.84
2019-05-10T10:34:27.000Z,8.75
2019-05-10T10:35:28.000Z,8.82
2019-05-10T10:36:27.000Z,8.91
2019-05-10T10:37:27.000Z,8.93
2019-05-10T10:38:27.000Z,8.93
2019-05-10T10:39:27.000Z,8.93
2019-05-10T10:40:27.000Z,9.04
2019-05-10T10:41:27.000Z,9.02
2019-05-10T10:42:27.000Z,9.15
2019-05-10T10:43:27.000Z,9.21
2019-05-10T10:44:27.000Z,9.23
2019-05-10T10:45:27.000Z,9.38
2019-05-10T10:46:27.000Z,9.36
2019-05-10T10:47:27.000Z,9.43
2019-05-10T10:48:27.000Z,9.38
2019-05-10T10:49:27.000Z,9.40
2019-05-10T10:50:27.000Z,9.50
2019-05-10T10:51:27.000Z,9.40
2019-05-10T10:52:27.000Z,9.40
2019-05-10T10:53:27.000Z,9.35
2019-05-10T10:54:27.000Z,9.41
2019-05-10T10:55:27.000Z,9.32
2019-05-10T10:56:27.000Z,9.12
2019-05-10T10:57:28.000Z,9.23
2019-05-10T10:58:27.000Z,9.38
2019-05-10T10:59:27.000Z,9.33
2019-05-10T11:00:27.000Z,9.77
2019-05-10T11:01:27.000Z,9.72
2019-05-10T11:02:27.000Z,9.67
2019-05-10T11:03:27.000Z,9.90
2019-05-10T11:04:27.000Z,9.87
2019-05-10T11:05:27.000Z,9.83
2019-05-10T11:06:27.000Z,9.86
2019-05-10T11:07:27.000Z,10.00
2019-05-10T11:08:27.000Z,10.16
2019-05-10T11:09:27.000Z,9.81
2019-05-10T11:10:27.000Z,9.89
2019-05-10T11:11:27.000Z,9.96
2019-05-10T11:12:27.000Z,10.16
2019-05-10T11:13:27.000Z,10.15
2019-05-10T11:14:27.000Z,10.06
2019-05-10T11:15:27.000Z,10.04
2019-05-10T11:16:27.000Z,10.08
2019-05-10T11:17:27.000Z,10.13
2019-05-10T11:18:27.000Z,10.21
2019-05-10T11:19:27.000Z,9.44
2019-05-10T11:20:27.000Z,9.75
2019-05-10T11:21:27.000Z,9.72
2019-05-10T11:22:27.000Z,9.46
2019-05-10T11:23:27.000Z,9.77
2019-05-10T11:24:27.000Z,9.54
2019-05-10T11:25:27.000Z,9.68
2019-05-10T11:26:27.000Z,9.52
2019-05-10T11:27:27.000Z,9.63
2019-05-10T11:28:27.000Z,9.67
2019-05-10T11:29:27.000Z,9.68
2019-05-10T11:30:27.000Z,9.39
2019-05-10T11:31:27.000Z,9.50
2019-05-10T11:32:27.000Z,9.60
2019-05-10T11:33:27.000Z,9.70
2019-05-10T11:34:27.000Z,9.84
2019-05-10T11:35:27.000Z,9.63
2019-05-10T11:36:27.000Z,9.93
2019-05-10T11:37:27.000Z,9.75
2019-05-10T11:38:27.000Z,9.70
2019-05-10T11:39:27.000Z,9.79
2019-05-10T11:40:27.000Z,9.78
2019-05-10T11:41:27.000Z,9.54
2019-05-10T11:42:27.000Z,9.68
2019-05-10T11:43:27.000Z,9.73
2019-05-10T11:44:27.000Z,9.49
2019-05-10T11:45:27.000Z,9.49
2019-05-10T11:46:27.000Z,9.52
2019-05-10T11:47:27.000Z,9.45
2019-05-10T11:48:27.000Z,9.44
2019-05-10T11:49:27.000Z,9.32
2019-05-10T11:50:27.000Z,9.34
2019-05-10T11:51:27.000Z,9.35
2019-05-10T11:52:27.000Z,9.40
2019-05-10T11:53:27.000Z,9.50
2019-05-10T11:54:27.000Z,9.29
2019-05-10T11:55:27.000Z,9.45
2019-05-10T11:56:27.000Z,9.38
2019-05-10T11:57:27.000Z,9.21
2019-05-10T11:58:28.000Z,9.28
2019-05-10T11:59:27.000Z,9.35
2019-05-10T12:00:27.000Z,9.48
2019-05-10T12:01:27.000Z,9.53
2019-05-10T12:02:27.000Z,9.56
2019-05-10T12:03:27.000Z,9.61
2019-05-10T12:04:27.000Z,9.64
2019-05-10T12:05:27.000Z,9.73
2019-05-10T12:06:27.000Z,9.39
2019-05-10T12:07:27.000Z,9.61
2019-05-10T12:08:27.000Z,9.75
2019-05-10T12:09:27.000Z,9.87
2019-05-10T12:10:27.000Z,9.82
2019-05-10T12:11:27.000Z,9.90
2019-05-10T12:11:27.000Z,9.90
2019-05-10T12:12:27.000Z,9.58
2019-05-10T12:13:27.000Z,9.27
2019-05-10T12:14:27.000Z,9.45
2019-05-10T12:15:27.000Z,9.70
2019-05-10T12:16:28.000Z,9.75
2019-05-10T12:17:27.000Z,9.88
2019-05-10T12:18:27.000Z,10.19
2019-05-10T12:19:27.000Z,10.26
2019-05-10T12:20:27.000Z,9.80
2019-05-10T12:21:27.000Z,9.78
2019-05-10T12:22:27.000Z,9.91
2019-05-10T12:23:27.000Z,9.93
2019-05-10T12:24:27.000Z,9.99
2019-05-10T12:24:27.000Z,9.99
2019-05-10T12:25:27.000Z,9.92
2019-05-10T12:27:27.000Z,9.91
2019-05-10T12:28:27.000Z,10.13
2019-05-10T12:29:27.000Z,10.07
2019-05-10T12:30:27.000Z,9.89
2019-05-10T12:31:27.000Z,9.28
2019-05-10T12:32:27.000Z,9.04
2019-05-10T12:33:27.000Z,9.18
2019-05-10T12:34:27.000Z,9.29
2019-05-10T12:35:27.000Z,9.41
2019-05-10T12:36:27.000Z,9.76
2019-05-10T12:37:27.000Z,9.96
2019-05-10T12:38:27.000Z,9.91
2019-05-10T12:39:27.000Z,9.62
2019-05-10T12:40:27.000Z,9.57
2019-05-10T12:41:27.000Z,10.02
2019-05-10T12:42:27.000Z,9.96
2019-05-10T12:43:27.000Z,10.26
2019-05-10T12:44:27.000Z,10.33
2019-05-10T12:45:27.000Z,10.27
2019-05-10T12:46:27.000Z,10.22
2019-05-10T12:47:27.000Z,10.14
2019-05-10T12:48:27.000Z,10.28
2019-05-10T12:49:27.000Z,9.98
2019-05-10T12:50:27.000Z,10.25
2019-05-10T12:51:27.000Z,10.36
2019-05-10T12:52:27.000Z,10.32
2019-05-10T12:53:27.000Z,10.21
2019-05-10T12:54:27.000Z,10.20
2019-05-10T12:55:27.000Z,10.13
2019-05-10T12:56:27.000Z,10.10
2019-05-10T12:57:27.000Z,10.26
2019-05-10T12:58:27.000Z,10.18
2019-05-10T12:59:28.000Z,9.92
2019-05-10T13:00:27.000Z,9.96
2019-05-10T13:01:27.000Z,9.68
2019-05-10T13:02:27.000Z,9.59
2019-05-10T13:03:27.000Z,10.10
2019-05-10T13:04:27.000Z,9.78
2019-05-10T13:05:27.000Z,9.54
2019-05-10T13:06:27.000Z,9.70
2019-05-10T13:07:27.000Z,9.51
2019-05-10T13:08:27.000Z,9.91
2019-05-10T13:09:27.000Z,10.03
2019-05-10T13:10:27.000Z,10.14
2019-05-10T13:11:27.000Z,10.04
2019-05-10T13:12:27.000Z,10.14
2019-05-10T13:13:27.000Z,10.07
2019-05-10T13:14:27.000Z,10.00
2019-05-10T13:15:27.000Z,9.93
2019-05-10T13:16:27.000Z,9.69
2019-05-10T13:17:28.000Z,9.70
2019-05-10T13:18:27.000Z,9.62
2019-05-10T13:19:27.000Z,9.05
2019-05-10T13:20:27.000Z,9.39
2019-05-10T13:21:27.000Z,9.11
2019-05-10T13:22:27.000Z,9.23
2019-05-10T13:23:27.000Z,9.16
2019-05-10T13:24:27.000Z,9.23
2019-05-10T13:25:27.000Z,9.26
2019-05-10T13:26:27.000Z,9.20
2019-05-10T13:27:27.000Z,9.35